DeKalb Peachtree Airport
KPDK : now visible

Airfield :











YOU CAN JOIN US ON...

 
LOGIN :

Register | Disclaimer

   EN    FR    IT 

 









Legend :    VFR   Marginal VFR   IFR   Intensive IFR   Very Intensive IFR
Visi :
Ceiling :
>= 8 km
>= 3000ft
5 to 8 km
1000 to 3000 ft
1500m to 5 km
500 to 1000 ft
800 to 1500m
200 to 500 ft
< 800m
< 200 ft
Symbols :   Thunderstorms  Fog  Heavy snow  Heavy precipitations  Wind > 20 kt







- Airport Elevation : 1003 ft


KPDK - DeKalb Peachtree

CURRENT METAR :
  • 220753Z AUTO 25005KT 10SM CLR 24/21 A3001 RMK AO2 SLP142 T02440211

EXPIRED METARs :
  • 220653Z AUTO 22003KT 10SM CLR 23/21 A3002 RMK AO2 SLP145 T02330211
  • 220553Z AUTO 18003KT 10SM CLR 23/21 A3004 RMK AO2 SLP152 T02330211 10294 20233 58004

TAF KPDK
Valid from the 22 at 06:00 until the 23 at 06:00 UTC


220541Z 2206/2306 VRB03KT P6SM SCT050 BKN060
FM221500 25007KT P6SM SCT030 BKN100
FM221800 23007KT P6SM VCSH SCT040 BKN090
PROB30 2219/2224 6SM TSRA BKN040CB
FM230400 24005KT P6SM VCSH BKN040
KZTL FIR / North America



MET'MAP, your aeronautical weather chart ! - Copyright ORBIFLY December 2007 - Disclaimer

ORBIFLY MET'MAP TEAM :

Programming & Development : Alexandra Zaïnal
Concept & Development : Baudouin d'Aumeries
Co-Development & Prog : Marc-Olivier Méhu
Technical & hardware support : Manuel Goepfert

Contact : metmap@orbifly.com




SOURCES & CREDITS :

   NOAA       Earth
Advisory